Notice: iconv(): Detected an illegal character in input string in /home/carquefo/www/weather28/wsLangFunctions.php on line 115

Notice: iconv(): Detected an illegal character in input string in /home/carquefo/www/weather28/wsLangFunctions.php on line 115
Météorologique de l'aéroport - Carquefoumeteo
Notice: Undefined index: wuKey in /home/carquefo/www/weather28/wuforecast/wualmanac.php on line 27

Il s'agit d'un problème de communication. Allez directement sur le site Meteoalarm : www.meteoalarm.eu et vérifier les avertissements météorologiques..



Visitez nos sites météorologiques autres:

Template documentation
and downloads

And another site


Vous trouverez notre info météo Également à:

WeatherCloud

Weather Underground

AWEKAS



Rapports METAR proximité

   
EHVK - Volkel Rnlafb, Netherlands
Distance: SO 18 km
Mise à jour: 04-02-2023 06:55
Brouillard, Nuageux  
Brouillard, Nuageux  
   Vent: Ouest 5.6 km/h
Vent: Ouest 5.6 km/h
Température: 6°C
éolien: 5°C
Point de rosée: 5°C
Humidité: 93%
Baromètre: 1034 hPa
Nuageux: Nuageux
visibilité: 6 km
Détails des nuages: Nuageux 4600 ft
EHVK 040555Z AUTO 27003KT 230V290 6000 BR OVC046 06/05 Q1034 WHT
EDLV - Niederrhein, Germany
Distance: SE 25 km
Mise à jour: 04-02-2023 06:50
Partiellement nuageux  
Partiellement nuageux  
   Vent: varie 3.7 km/h
Vent: varie 3.7 km/h
Température: 5°C
Point de rosée: 5°C
Humidité: 100%
Baromètre: 1034 hPa
Nuageux: Partiellement nuageux
visibilité: 7 km
Détails des nuages: Partiellement nuageux
EDLV 040550Z VRB02KT 7000 NSC 05/05 Q1034
EHDL - Deelen Rnlafb, Netherlands
Distance: N 35 km
Mise à jour: 04-02-2023 06:55
Brouillard, Nuageux  
Brouillard, Nuageux  
   Vent: ENE 1.9 km/h
Vent: ENE 1.9 km/h
Température: 2°C
Point de rosée: 2°C
Humidité: 100%
Baromètre: 1034 hPa
Nuageux: Nuageux
visibilité: 4 km
Détails des nuages: Nuageux
EHDL 040555Z AUTO 07001KT 4200 BR OVC000 02/02 Q1034 RED
EHEH - Eindhoven Rnlafb, Netherlands
Distance: SO 48 km
Mise à jour: 04-02-2023 07:15
Brouillard, Nuageux  
Brouillard, Nuageux  
   Vent: OSO 5.6 km/h
Vent: OSO 5.6 km/h
Température: 3°C
éolien: 2°C
Point de rosée: 3°C
Humidité: 100%
Baromètre: 1034 hPa
Nuageux: Nuageux
visibilité: 0 km
Détails des nuages: Nuageux
EHEH 040615Z AUTO 25003KT 0400 R21/0275D FG OVC000 03/03 Q1034 RED TEMPO VRB02KT 0300 FG OVC001
EHGR - Gilze-Rijen Rnla, Netherlands
Distance: OSO 70 km
Mise à jour: 04-02-2023 07:17
Brouillard, Nuageux  
Brouillard, Nuageux  
   Vent: OSO 5.6 km/h
Vent: OSO 5.6 km/h
Température: 6°C
éolien: 5°C
Point de rosée: 6°C
Humidité: 100%
Baromètre: 1034 hPa
Nuageux: Nuageux
visibilité: 1 km
Détails des nuages: Nuageux 1900 ft,
Nuageux 2200 ft
EHGR 040617Z AUTO 24003KT 0900 FG BKN019 OVC022 06/06 Q1034 AMB
EBBL - Kleine-Brogel(Ba, Belgium
Distance: SSO 71 km
Mise à jour: 04-02-2023 06:55
Brouillard, Nuageux  
Brouillard, Nuageux  
   Vent: varie calme
Vent: varie calme
Température: 3°C
Point de rosée: 3°C
Humidité: 100%
Baromètre: 1034 hPa
Nuageux: Nuageux
visibilité: 0 km
Détails des nuages: Nuageux 400 ft
EBBL 040555Z AUTO //////KT 0100 FG OVC004/// 03/03 Q1034 RED

Script développé par  Saratoga-weather.org Adapté pour le modèle par  Weerstation Leuven

Équipement que nous utilisons:

Station de Météo
Davis VP2

Programme Météo
Weather Display

Davis VP2

Weather Display